Time;durP1;ratioP1;P1;durP2;ratioP2;P2;SDS_P1;SDS_P2;PMS_P1;PMS_P2;Temp;Humidity;BMP_temperature;BMP_pressure;BME280_temperature;BME280_humidity;BME280_pressure;Samples;Min_cycle;Max_cycle;Signal;HPM_P1;HPM_P2
2022/05/20 06:58:12;;;;;;;;;;;19.60;66.70;;;;;;5111170;27;20348;-93
2022/05/20 07:00:37;;;;;;;;;;;19.60;67.70;;;;;;5098103;28;20488;-93
2022/05/20 07:05:37;;;;;;;;;;;19.70;65.60;;;;;;5131681;27;19965;-93
2022/05/20 07:08:02;;;;;;;;;;;19.80;66.40;;;;;;5136707;27;19949;-93
2022/05/20 07:10:28;;;;;;;;;;;20.00;66.30;;;;;;5135314;27;19978;-93
2022/05/20 07:12:54;;;;;;;;;;;20.00;66.00;;;;;;5120699;27;19946;-93
2022/05/20 07:15:19;;;;;;;;;;;20.20;66.70;;;;;;5129964;27;19937;-93
2022/05/20 07:17:46;;;;;;;;;;;20.30;66.10;;;;;;5131745;27;19942;-94
2022/05/20 07:31:49;;;;;;;;;;;20.60;63.50;;;;;;5131937;27;25134;-93
2022/05/20 07:34:15;;;;;;;;;;;20.70;63.30;;;;;;5131453;27;25097;-93
2022/05/20 07:36:40;;;;;;;;;;;20.70;62.40;;;;;;5142266;27;25128;-93
2022/05/20 07:39:08;;;;;;;;;;;20.60;61.80;;;;;;5144063;27;25054;-95
2022/05/20 07:41:35;;;;;;;;;;;20.70;62.70;;;;;;5131393;27;25061;-93
2022/05/20 07:44:01;;;;;;;;;;;20.70;63.10;;;;;;5131479;27;25098;-94
2022/05/20 07:46:27;;;;;;;;;;;20.80;62.60;;;;;;5128513;28;25078;-94
2022/05/20 07:48:53;;;;;;;;;;;20.80;61.50;;;;;;5130664;27;25089;-93
2022/05/20 07:51:20;;;;;;;;;;;20.90;63.30;;;;;;5114196;27;25137;-93
2022/05/20 07:53:50;;;;;;;;;;;21.00;61.80;;;;;;5110422;28;25115;-94
2022/05/20 07:56:33;;;;;;;;;;;21.10;61.30;;;;;;5131287;27;25080;-93
2022/05/20 07:59:04;;;;;;;;;;;21.20;60.50;;;;;;5133484;27;25101;-94
2022/05/20 08:01:31;;;;;;;;;;;21.30;60.10;;;;;;5130563;28;25064;-93
2022/05/20 08:06:44;;;;;;;;;;;21.30;59.30;;;;;;5132688;27;25068;-93
2022/05/20 08:09:10;;;;;;;;;;;21.40;60.20;;;;;;5122133;27;25073;-94
2022/05/20 08:11:35;;;;;;;;;;;21.40;59.40;;;;;;5130646;27;25081;-93
2022/05/20 08:14:01;;;;;;;;;;;21.50;58.20;;;;;;5130458;28;25145;-93
2022/05/20 08:16:27;;;;;;;;;;;21.50;58.30;;;;;;5134312;27;25120;-93
2022/05/20 08:18:53;;;;;;;;;;;21.60;57.70;;;;;;5129556;27;25112;-93
2022/05/20 08:21:19;;;;;;;;;;;21.60;57.90;;;;;;5118201;27;25088;-93
2022/05/20 08:23:45;;;;;;;;;;;21.80;58.80;;;;;;5122135;27;25073;-93
2022/05/20 08:26:12;;;;;;;;;;;21.80;56.50;;;;;;5123787;27;25073;-92
2022/05/20 08:28:37;;;;;;;;;;;21.80;55.90;;;;;;5116048;28;25078;-93
2022/05/20 08:31:03;;;;;;;;;;;21.80;56.30;;;;;;5117123;28;25061;-93
2022/05/20 08:33:28;;;;;;;;;;;21.90;55.80;;;;;;5109808;28;25125;-93
2022/05/20 08:38:32;;;;;;;;;;;21.90;55.90;;;;;;5048719;27;2156766;-93
2022/05/20 08:51:10;;;;;;;;;;;22.20;56.60;;;;;;5131633;27;25065;-94
2022/05/20 08:53:40;;;;;;;;;;;22.80;54.10;;;;;;5107849;28;25082;-93
2022/05/20 08:56:07;;;;;;;;;;;22.80;54.30;;;;;;5128388;28;25069;-93
2022/05/20 08:58:35;;;;;;;;;;;22.90;53.40;;;;;;5105815;28;25064;-94
2022/05/20 09:01:00;;;;;;;;;;;23.00;51.90;;;;;;5131479;28;25109;-94
2022/05/20 09:03:26;;;;;;;;;;;23.00;52.70;;;;;;5126126;28;25108;-92
2022/05/20 09:06:12;;;;;;;;;;;23.20;52.00;;;;;;5121432;28;25072;-93
2022/05/20 09:08:37;;;;;;;;;;;23.30;51.80;;;;;;5104852;28;25106;-92
2022/05/20 09:11:04;;;;;;;;;;;23.40;52.30;;;;;;5125720;28;25098;-93
2022/05/20 09:16:17;;;;;;;;;;;23.60;51.80;;;;;;5123206;28;25047;-90
2022/05/20 09:18:47;;;;;;;;;;;23.70;47.50;;;;;;5124452;28;25066;-88
2022/05/20 09:21:29;;;;;;;;;;;23.70;48.70;;;;;;5116372;28;25065;-89
2022/05/20 09:23:57;;;;;;;;;;;23.70;49.00;;;;;;5104574;28;25074;-91
2022/05/20 09:26:24;;;;;;;;;;;23.80;50.00;;;;;;5093804;28;25078;-90
2022/05/20 09:29:10;;;;;;;;;;;23.90;49.10;;;;;;5076585;28;25133;-90
2022/05/20 09:31:42;;;;;;;;;;;23.90;46.40;;;;;;5094399;28;25072;-91
2022/05/20 09:34:10;;;;;;;;;;;23.90;47.10;;;;;;5100638;28;25127;-91
2022/05/20 09:36:43;;;;;;;;;;;24.00;49.30;;;;;;5090729;28;25169;-91
2022/05/20 09:39:11;;;;;;;;;;;24.00;46.10;;;;;;5091687;28;25162;-92
2022/05/20 09:41:51;;;;;;;;;;;24.10;49.30;;;;;;5099216;28;25161;-91
2022/05/20 09:44:19;;;;;;;;;;;24.20;46.60;;;;;;5092541;28;25057;-92
2022/05/20 09:46:51;;;;;;;;;;;24.30;47.70;;;;;;5099545;28;25131;-92
2022/05/20 09:49:22;;;;;;;;;;;24.40;47.20;;;;;;5098877;28;25076;-91
2022/05/20 09:51:54;;;;;;;;;;;24.50;47.40;;;;;;5100791;28;25077;-92
2022/05/20 09:54:28;;;;;;;;;;;24.60;47.40;;;;;;5090605;28;25045;-92
2022/05/20 09:57:13;;;;;;;;;;;24.80;47.40;;;;;;5093063;28;25043;-91
2022/05/20 09:59:44;;;;;;;;;;;24.80;45.00;;;;;;5094007;28;25058;-91
2022/05/20 10:02:17;;;;;;;;;;;24.60;46.90;;;;;;5083999;28;25072;-91
2022/05/20 10:04:46;;;;;;;;;;;24.70;46.50;;;;;;5083411;28;25065;-91
2022/05/20 10:07:13;;;;;;;;;;;24.70;45.40;;;;;;5095467;28;25055;-91
2022/05/20 10:09:42;;;;;;;;;;;24.80;45.10;;;;;;5095553;28;25122;-91
2022/05/20 10:12:07;;;;;;;;;;;25.00;46.70;;;;;;5084205;28;25106;-92
2022/05/20 10:14:36;;;;;;;;;;;25.10;44.10;;;;;;5075735;28;25138;-92
2022/05/20 10:17:20;;;;;;;;;;;25.20;45.80;;;;;;5075400;28;25056;-92
2022/05/20 10:19:52;;;;;;;;;;;25.30;46.40;;;;;;5075377;28;25108;-92
2022/05/20 10:22:21;;;;;;;;;;;25.50;47.80;;;;;;5075220;28;25069;-92
2022/05/20 10:24:56;;;;;;;;;;;25.70;44.80;;;;;;5075317;28;25060;-91
2022/05/20 10:27:40;;;;;;;;;;;25.50;42.70;;;;;;5075259;28;25150;-92
2022/05/20 10:33:00;;;;;;;;;;;25.40;42.80;;;;;;5074927;28;25080;-91
2022/05/20 10:35:49;;;;;;;;;;;25.50;42.30;;;;;;5094641;28;25075;-91
2022/05/20 10:38:33;;;;;;;;;;;25.40;42.50;;;;;;5081598;28;25138;-91
2022/05/20 10:41:04;;;;;;;;;;;25.30;42.10;;;;;;5095216;28;25066;-91
2022/05/20 10:49:14;;;;;;;;;;;25.70;42.10;;;;;;5095045;28;25070;-91
2022/05/20 10:51:40;;;;;;;;;;;25.80;41.20;;;;;;5076823;28;25130;-91
2022/05/20 10:54:06;;;;;;;;;;;25.80;40.50;;;;;;5095270;28;25085;-91
2022/05/20 10:56:49;;;;;;;;;;;25.90;41.30;;;;;;5095241;28;25149;-91
2022/05/20 10:59:15;;;;;;;;;;;26.10;42.40;;;;;;5081466;28;25073;-91
2022/05/20 11:01:53;;;;;;;;;;;26.30;44.10;;;;;;5074543;28;25132;-92
2022/05/20 11:04:18;;;;;;;;;;;26.40;42.20;;;;;;5074539;28;25108;-91
2022/05/20 11:07:03;;;;;;;;;;;26.40;41.50;;;;;;5074511;28;25096;-92
2022/05/20 11:09:34;;;;;;;;;;;26.30;40.70;;;;;;5074373;28;25096;-91
2022/05/20 11:12:01;;;;;;;;;;;26.50;41.30;;;;;;5074174;28;25078;-91
2022/05/20 11:16:36;;;;;;;;;;;26.40;39.80;;;;;;5123213;27;25069;-91
2022/05/20 11:19:23;;;;;;;;;;;26.50;41.90;;;;;;5090336;28;25056;-91
2022/05/20 11:21:48;;;;;;;;;;;26.60;42.90;;;;;;5090363;28;25078;-91
2022/05/20 11:24:32;;;;;;;;;;;26.70;41.90;;;;;;5079409;28;25067;-92
2022/05/20 11:26:58;;;;;;;;;;;26.70;39.80;;;;;;5076001;28;25071;-91
2022/05/20 11:29:42;;;;;;;;;;;26.80;40.30;;;;;;5082590;28;25142;-91
2022/05/20 11:32:10;;;;;;;;;;;26.80;38.60;;;;;;5073116;28;25053;-92
2022/05/20 11:34:50;;;;;;;;;;;26.90;39.50;;;;;;5070873;28;25071;-91
2022/05/20 11:37:19;;;;;;;;;;;27.10;38.50;;;;;;5077693;28;25070;-92
2022/05/20 11:39:50;;;;;;;;;;;27.20;39.50;;;;;;5065911;28;25074;-92
2022/05/20 11:42:16;;;;;;;;;;;27.60;40.20;;;;;;5069717;28;25130;-92
2022/05/20 11:44:54;;;;;;;;;;;27.90;37.30;;;;;;5068735;28;25078;-91
2022/05/20 11:47:34;;;;;;;;;;;28.10;37.60;;;;;;5065935;28;25083;-92
2022/05/20 11:50:02;;;;;;;;;;;28.40;37.40;;;;;;5074480;28;25083;-92
2022/05/20 11:52:33;;;;;;;;;;;28.60;38.00;;;;;;5086415;28;25071;-92
2022/05/20 11:55:06;;;;;;;;;;;28.70;40.10;;;;;;5073425;28;25053;-92
2022/05/20 11:57:38;;;;;;;;;;;29.00;38.60;;;;;;5075416;28;25116;-93
2022/05/20 12:00:04;;;;;;;;;;;29.60;38.60;;;;;;5069844;28;25061;-92
2022/05/20 12:02:32;;;;;;;;;;;29.90;38.30;;;;;;5069874;28;25065;-92
2022/05/20 12:04:58;;;;;;;;;;;30.00;37.40;;;;;;5068272;28;25063;-92
2022/05/20 12:07:25;;;;;;;;;;;30.30;37.30;;;;;;5072831;28;25079;-92
2022/05/20 12:09:52;;;;;;;;;;;30.70;38.20;;;;;;5071918;28;25157;-91
2022/05/20 12:12:24;;;;;;;;;;;30.90;38.60;;;;;;5075371;28;25053;-92
2022/05/20 12:15:02;;;;;;;;;;;31.00;35.60;;;;;;5079576;28;25060;-93
2022/05/20 12:17:50;;;;;;;;;;;31.60;35.20;;;;;;5113335;27;25113;-91
2022/05/20 12:33:23;;;;;;;;;;;31.20;34.70;;;;;;5119297;27;25054;-91
2022/05/20 12:36:07;;;;;;;;;;;31.50;36.00;;;;;;5082638;28;25110;-91
2022/05/20 12:38:33;;;;;;;;;;;31.60;35.70;;;;;;5075777;28;25058;-91
2022/05/20 12:40:59;;;;;;;;;;;31.40;34.70;;;;;;5102706;28;25144;-91
2022/05/20 12:43:41;;;;;;;;;;;31.40;33.50;;;;;;5089645;28;25141;-91
2022/05/20 12:46:09;;;;;;;;;;;30.90;34.20;;;;;;5093663;28;25066;-91
2022/05/20 12:48:35;;;;;;;;;;;30.60;36.70;;;;;;5095164;28;25085;-91
2022/05/20 12:51:03;;;;;;;;;;;30.50;35.10;;;;;;5098862;28;25132;-91
2022/05/20 12:53:30;;;;;;;;;;;31.20;35.50;;;;;;5094633;28;25083;-92
2022/05/20 12:55:56;;;;;;;;;;;32.20;34.30;;;;;;5110105;28;25082;-91
2022/05/20 12:58:27;;;;;;;;;;;33.20;32.30;;;;;;5083572;28;25067;-91
2022/05/20 13:00:53;;;;;;;;;;;33.70;32.00;;;;;;5109849;28;25060;-91
2022/05/20 13:03:24;;;;;;;;;;;34.30;28.90;;;;;;5086343;28;25103;-91
2022/05/20 13:05:53;;;;;;;;;;;34.30;28.80;;;;;;5075076;28;25074;-91
2022/05/20 13:08:20;;;;;;;;;;;34.20;29.90;;;;;;5079003;28;25077;-91
2022/05/20 13:10:46;;;;;;;;;;;35.30;27.80;;;;;;5093746;28;25172;-92
2022/05/20 13:13:22;;;;;;;;;;;36.10;28.20;;;;;;5084243;28;25090;-92
2022/05/20 13:15:49;;;;;;;;;;;37.40;25.40;;;;;;5094879;28;25083;-91
2022/05/20 13:18:19;;;;;;;;;;;37.40;26.50;;;;;;5095944;28;25111;-91
